createdAt,value
2018-12-02T00:00:17.993Z,1.27
2018-12-02T00:02:45.978Z,1.03
2018-12-02T00:05:13.964Z,1.23
2018-12-02T00:07:41.914Z,1.00
2018-12-02T00:10:13.029Z,1.53
2018-12-02T00:12:40.928Z,0.97
2018-12-02T00:15:26.590Z,1.30
2018-12-02T00:17:56.585Z,0.80
2018-12-02T00:20:24.512Z,1.10
2018-12-02T00:22:52.506Z,0.97
2018-12-02T00:25:20.476Z,0.90
2018-12-02T00:27:49.490Z,0.80
2018-12-02T00:30:18.612Z,0.80
2018-12-02T00:32:46.604Z,0.83
2018-12-02T00:35:15.474Z,0.80
2018-12-02T00:37:44.464Z,0.80
2018-12-02T00:40:15.341Z,0.80
2018-12-02T00:42:59.150Z,1.10
2018-12-02T00:45:34.855Z,0.90
2018-12-02T00:48:03.865Z,1.00
2018-12-02T00:50:31.769Z,0.93
2018-12-02T00:53:00.207Z,0.80
2018-12-02T00:55:30.550Z,0.70
2018-12-02T00:57:58.438Z,0.90
2018-12-02T01:00:26.321Z,0.90
2018-12-02T01:02:54.350Z,0.80
2018-12-02T01:05:22.683Z,0.70
2018-12-02T01:07:50.646Z,0.70
2018-12-02T01:10:22.228Z,0.77
2018-12-02T01:12:51.131Z,0.70
2018-12-02T01:15:21.018Z,0.60
2018-12-02T01:17:49.062Z,0.70
2018-12-02T01:20:20.654Z,0.60
2018-12-02T01:22:48.563Z,0.80
2018-12-02T01:25:16.461Z,0.87
2018-12-02T01:27:45.162Z,0.60
2018-12-02T01:30:18.085Z,0.70
2018-12-02T01:32:45.996Z,0.57
2018-12-02T01:35:14.706Z,0.77
2018-12-02T01:37:42.609Z,0.40
2018-12-02T01:40:12.473Z,0.60
2018-12-02T01:42:40.373Z,0.60
2018-12-02T01:45:10.569Z,0.70
2018-12-02T01:47:38.477Z,0.50
2018-12-02T01:50:09.369Z,0.53
2018-12-02T01:52:37.262Z,0.50
2018-12-02T01:55:05.878Z,0.50
2018-12-02T01:57:33.761Z,0.50
2018-12-02T02:00:01.643Z,0.60
2018-12-02T02:02:29.555Z,0.40
2018-12-02T02:04:57.435Z,0.50
2018-12-02T02:07:25.361Z,0.50
2018-12-02T02:09:53.250Z,0.53
2018-12-02T02:12:21.124Z,0.40
2018-12-02T02:14:49.061Z,0.50
2018-12-02T02:17:16.942Z,0.30
2018-12-02T02:19:44.823Z,0.40
2018-12-02T02:22:12.770Z,0.40
2018-12-02T02:24:40.721Z,0.40
2018-12-02T02:27:08.635Z,0.40
2018-12-02T02:29:36.533Z,0.40
2018-12-02T02:32:04.745Z,0.30
2018-12-02T02:34:32.609Z,0.50
2018-12-02T02:37:00.515Z,0.47
2018-12-02T02:39:28.403Z,0.43
2018-12-02T02:41:56.293Z,0.40
2018-12-02T02:44:24.227Z,0.47
2018-12-02T02:46:52.098Z,0.30
2018-12-02T02:49:19.985Z,0.50
2018-12-02T02:51:47.881Z,0.70
2018-12-02T02:54:15.753Z,0.60
2018-12-02T02:56:43.620Z,0.47
2018-12-02T02:59:11.523Z,0.40
2018-12-02T03:01:39.402Z,0.73
2018-12-02T03:04:07.298Z,1.27
2018-12-02T03:06:35.193Z,0.80
2018-12-02T03:09:04.321Z,0.37
2018-12-02T03:11:32.217Z,0.60
2018-12-02T03:14:00.110Z,0.50
2018-12-02T03:16:27.989Z,0.80
2018-12-02T03:18:55.898Z,0.70
2018-12-02T03:21:23.764Z,1.00
2018-12-02T03:23:51.688Z,0.77
2018-12-02T03:26:19.652Z,0.70
2018-12-02T03:28:47.446Z,0.63
2018-12-02T03:31:15.350Z,0.60
2018-12-02T03:33:43.256Z,1.00
2018-12-02T03:36:11.197Z,1.00
2018-12-02T03:38:39.032Z,0.80
2018-12-02T03:41:06.910Z,1.00
2018-12-02T03:43:34.798Z,1.20
2018-12-02T03:46:02.697Z,0.90
2018-12-02T03:48:30.626Z,1.00
2018-12-02T03:50:58.542Z,1.10
2018-12-02T03:53:26.421Z,1.00
2018-12-02T03:55:54.362Z,1.00
2018-12-02T03:58:22.234Z,1.00
2018-12-02T04:00:50.155Z,1.17
2018-12-02T04:03:18.061Z,0.97
2018-12-02T04:05:45.976Z,1.20
2018-12-02T04:08:13.850Z,1.27
2018-12-02T04:10:41.749Z,0.93
2018-12-02T04:13:09.654Z,1.00
2018-12-02T04:15:37.549Z,0.90
2018-12-02T04:18:05.467Z,0.90
2018-12-02T04:20:33.342Z,1.10
2018-12-02T04:23:01.228Z,1.10
2018-12-02T04:25:29.112Z,0.93
2018-12-02T04:27:57.014Z,0.93
2018-12-02T04:30:24.954Z,1.03
2018-12-02T04:32:53.553Z,1.20
2018-12-02T04:35:23.548Z,1.07
2018-12-02T04:37:51.445Z,0.80
2018-12-02T04:40:19.322Z,0.93
2018-12-02T04:42:47.230Z,0.80
2018-12-02T04:45:18.009Z,1.10
2018-12-02T04:47:46.059Z,0.97
2018-12-02T04:50:16.054Z,1.20
2018-12-02T04:52:43.951Z,1.10
2018-12-02T04:55:11.845Z,1.00
2018-12-02T04:57:39.767Z,1.20
2018-12-02T05:00:10.095Z,1.00
2018-12-02T05:02:38.014Z,1.20
2018-12-02T05:05:08.278Z,1.23
2018-12-02T05:07:36.342Z,1.23
2018-12-02T05:10:06.685Z,1.10
2018-12-02T05:12:34.572Z,1.10
2018-12-02T05:15:02.470Z,1.20
2018-12-02T05:17:30.397Z,1.00
2018-12-02T05:19:58.313Z,0.97
2018-12-02T05:22:26.190Z,1.00
2018-12-02T05:24:54.083Z,1.20
2018-12-02T05:27:21.967Z,0.87
2018-12-02T05:29:49.865Z,1.10
2018-12-02T05:32:17.757Z,0.83
2018-12-02T05:34:45.634Z,0.83
2018-12-02T05:37:13.529Z,0.83
2018-12-02T05:39:41.426Z,0.87
2018-12-02T05:42:14.630Z,0.87
2018-12-02T05:44:42.521Z,0.70
2018-12-02T05:47:10.432Z,0.90
2018-12-02T05:49:38.383Z,0.73
2018-12-02T05:52:06.265Z,0.83
2018-12-02T05:54:34.173Z,0.90
2018-12-02T05:57:02.061Z,0.90
2018-12-02T05:59:29.966Z,1.07
2018-12-02T06:01:57.877Z,0.80
2018-12-02T06:04:25.785Z,0.70
2018-12-02T06:06:53.670Z,0.73
2018-12-02T06:09:21.558Z,0.90
2018-12-02T06:11:49.454Z,0.60
2018-12-02T06:14:17.326Z,0.63
2018-12-02T06:16:45.214Z,0.83
2018-12-02T06:19:13.080Z,0.50
2018-12-02T06:21:40.974Z,0.70
2018-12-02T06:24:08.845Z,0.70
2018-12-02T06:26:36.722Z,0.60
2018-12-02T06:29:04.701Z,0.60
2018-12-02T06:31:32.574Z,0.60
2018-12-02T06:34:00.462Z,0.80
2018-12-02T06:36:28.631Z,0.70
2018-12-02T06:38:56.526Z,0.73
2018-12-02T06:41:24.427Z,0.70
2018-12-02T06:43:52.337Z,0.60
2018-12-02T06:46:20.227Z,0.63
2018-12-02T06:48:48.090Z,0.70
2018-12-02T06:51:15.999Z,0.60
2018-12-02T06:53:48.094Z,0.60
2018-12-02T06:56:18.661Z,0.53
2018-12-02T06:58:58.569Z,0.70
2018-12-02T07:01:35.841Z,0.47
2018-12-02T07:04:08.134Z,0.50
2018-12-02T07:06:36.026Z,0.50
2018-12-02T07:09:04.477Z,0.40
2018-12-02T07:11:32.382Z,0.73
2018-12-02T07:14:00.254Z,0.50
2018-12-02T07:16:28.137Z,0.50
2018-12-02T07:18:56.037Z,0.60
2018-12-02T07:21:23.911Z,0.70
2018-12-02T07:23:51.837Z,0.70
2018-12-02T07:26:19.737Z,0.63
2018-12-02T07:28:47.638Z,0.70
2018-12-02T07:31:15.560Z,0.83
2018-12-02T07:33:43.440Z,0.60
2018-12-02T07:36:11.315Z,0.70
2018-12-02T07:38:47.988Z,0.70
2018-12-02T07:41:15.877Z,0.87
2018-12-02T07:43:43.785Z,0.70
2018-12-02T07:46:11.770Z,0.50
2018-12-02T07:48:39.665Z,0.70
2018-12-02T07:51:07.559Z,0.70
2018-12-02T07:53:35.461Z,0.80
2018-12-02T07:56:03.326Z,0.60
2018-12-02T07:58:31.229Z,0.70
2018-12-02T08:00:59.111Z,0.73
2018-12-02T08:03:27.004Z,0.40
2018-12-02T08:05:54.913Z,0.60
2018-12-02T08:08:22.801Z,0.53
2018-12-02T08:10:50.725Z,0.30
2018-12-02T08:13:18.588Z,0.40
2018-12-02T08:15:46.657Z,0.50
2018-12-02T08:18:14.572Z,0.40
2018-12-02T08:20:42.461Z,0.70
2018-12-02T08:23:10.394Z,0.37
2018-12-02T08:25:38.280Z,0.40
2018-12-02T08:28:06.201Z,0.50
2018-12-02T08:30:34.148Z,0.50
2018-12-02T08:33:02.032Z,0.40
2018-12-02T08:35:29.957Z,0.40
2018-12-02T08:38:00.434Z,0.30
2018-12-02T08:40:28.329Z,0.40
2018-12-02T08:42:56.214Z,0.33
2018-12-02T08:45:24.166Z,0.90
2018-12-02T08:47:52.050Z,0.70
2018-12-02T08:50:20.720Z,0.30
2018-12-02T08:52:50.729Z,0.50
2018-12-02T08:55:19.493Z,0.60
2018-12-02T08:57:48.174Z,0.57
2018-12-02T09:00:20.053Z,0.33
2018-12-02T09:02:49.441Z,0.37
2018-12-02T09:05:17.326Z,0.40
2018-12-02T09:07:45.217Z,0.40
2018-12-02T09:10:19.656Z,0.27
2018-12-02T09:12:48.390Z,0.40
2018-12-02T09:15:16.278Z,0.30
2018-12-02T09:17:44.257Z,0.27
2018-12-02T09:20:15.653Z,0.37
2018-12-02T09:22:43.529Z,1.00
2018-12-02T09:25:11.433Z,0.30
2018-12-02T09:27:39.322Z,0.30
2018-12-02T09:30:16.757Z,0.50
2018-12-02T09:32:44.642Z,0.60
2018-12-02T09:35:12.541Z,0.50
2018-12-02T09:37:40.414Z,0.30
2018-12-02T09:40:10.800Z,0.50
2018-12-02T09:42:39.042Z,0.60
2018-12-02T09:45:11.225Z,1.70
2018-12-02T09:47:39.115Z,2.00
2018-12-02T09:50:08.777Z,1.70
2018-12-02T09:52:36.737Z,1.53
2018-12-02T09:55:07.402Z,1.10
2018-12-02T09:57:35.297Z,1.70
2018-12-02T10:00:03.622Z,0.93
2018-12-02T10:02:31.528Z,1.33
2018-12-02T10:04:59.432Z,1.13
2018-12-02T10:07:27.318Z,2.00
2018-12-02T10:09:55.225Z,1.80
2018-12-02T10:12:23.146Z,2.83
2018-12-02T10:14:51.230Z,2.27
2018-12-02T10:17:19.130Z,2.10
2018-12-02T10:19:47.023Z,2.07
2018-12-02T10:22:14.917Z,1.90
2018-12-02T10:24:42.793Z,3.00
2018-12-02T10:27:10.665Z,1.20
2018-12-02T10:29:38.558Z,1.50
2018-12-02T10:32:12.195Z,0.90
2018-12-02T10:34:34.473Z,0.73
2018-12-02T10:37:02.365Z,0.77
2018-12-02T10:39:30.265Z,0.97
2018-12-02T10:41:58.184Z,0.90
2018-12-02T10:44:26.060Z,1.10
2018-12-02T10:46:53.962Z,0.80
2018-12-02T10:49:21.880Z,0.87
2018-12-02T10:51:49.783Z,0.60
2018-12-02T10:54:17.697Z,0.57
2018-12-02T10:56:46.072Z,0.90
2018-12-02T10:59:14.002Z,1.00
2018-12-02T11:01:42.479Z,0.50
2018-12-02T11:04:10.485Z,0.80
2018-12-02T11:06:38.459Z,0.60
2018-12-02T11:09:09.714Z,0.80
2018-12-02T11:11:37.657Z,0.60
2018-12-02T11:14:05.959Z,0.70
2018-12-02T11:16:33.855Z,0.70
2018-12-02T11:19:01.822Z,0.83
2018-12-02T11:21:29.782Z,0.80
2018-12-02T11:23:57.682Z,0.70
2018-12-02T11:26:25.630Z,0.40
2018-12-02T11:28:53.530Z,1.30
2018-12-02T11:31:21.424Z,1.77
2018-12-02T11:33:49.317Z,0.90
2018-12-02T11:36:17.262Z,4.50
2018-12-02T11:38:45.127Z,2.90
2018-12-02T11:41:13.005Z,1.00
2018-12-02T11:43:40.921Z,0.67
2018-12-02T11:46:08.811Z,0.83
2018-12-02T11:48:36.702Z,1.00
2018-12-02T11:51:04.893Z,1.10
2018-12-02T11:53:32.798Z,1.10
2018-12-02T11:56:00.705Z,1.30
2018-12-02T11:58:28.601Z,1.30
2018-12-02T12:00:56.566Z,1.57
2018-12-02T12:03:24.465Z,0.80
2018-12-02T12:05:52.343Z,0.60
2018-12-02T12:08:20.241Z,0.60
2018-12-02T12:10:48.135Z,0.77
2018-12-02T12:13:16.010Z,0.40
2018-12-02T12:15:43.914Z,0.70
2018-12-02T12:18:11.793Z,0.67
2018-12-02T12:20:42.451Z,2.30
2018-12-02T12:23:15.941Z,1.40
2018-12-02T12:25:43.834Z,0.70
2018-12-02T12:28:11.733Z,0.90
2018-12-02T12:30:39.622Z,0.50
2018-12-02T12:33:08.598Z,0.30
2018-12-02T12:35:38.033Z,0.50
2018-12-02T12:38:06.693Z,0.60
2018-12-02T12:40:35.895Z,0.70
2018-12-02T12:43:12.884Z,0.77
2018-12-02T12:45:40.786Z,0.50
2018-12-02T12:48:08.670Z,0.50
2018-12-02T12:50:36.580Z,0.40
2018-12-02T12:53:04.862Z,0.47
2018-12-02T12:55:32.749Z,0.60
2018-12-02T12:58:00.732Z,0.60
2018-12-02T13:00:28.627Z,0.70
2018-12-02T13:02:56.510Z,0.53
2018-12-02T13:05:25.527Z,0.50
2018-12-02T13:07:54.206Z,0.50
2018-12-02T13:10:22.096Z,0.67
2018-12-02T13:12:50.013Z,0.90
2018-12-02T13:15:22.000Z,0.80
2018-12-02T13:18:08.384Z,0.53
2018-12-02T13:20:40.251Z,1.10
2018-12-02T13:23:08.161Z,1.00
2018-12-02T13:25:36.058Z,0.90
2018-12-02T13:28:04.001Z,1.07
2018-12-02T13:30:31.873Z,0.90
2018-12-02T13:32:59.878Z,1.30
2018-12-02T13:35:27.769Z,1.13
2018-12-02T13:37:55.682Z,1.20
2018-12-02T13:40:23.726Z,1.10
2018-12-02T13:43:01.165Z,1.20
2018-12-02T13:45:30.167Z,1.30
2018-12-02T13:47:58.037Z,1.07
2018-12-02T13:50:25.938Z,1.00
2018-12-02T13:52:54.902Z,1.10
2018-12-02T13:55:27.483Z,1.00
2018-12-02T13:57:55.548Z,1.30
2018-12-02T14:00:25.133Z,1.20
2018-12-02T14:02:55.261Z,1.30
2018-12-02T14:05:23.185Z,1.20
2018-12-02T14:07:51.082Z,1.20
2018-12-02T14:10:18.977Z,1.20
2018-12-02T14:12:53.755Z,1.20
2018-12-02T14:16:31.155Z,1.20
2018-12-02T14:19:03.274Z,1.30
2018-12-02T14:21:31.200Z,1.47
2018-12-02T14:23:59.126Z,1.20
2018-12-02T14:26:27.010Z,1.40
2018-12-02T14:28:57.665Z,1.10
2018-12-02T14:31:26.692Z,1.00
2018-12-02T14:33:54.590Z,1.00
2018-12-02T14:36:22.470Z,1.10
2018-12-02T14:38:50.698Z,1.03
2018-12-02T14:41:18.623Z,0.90
2018-12-02T14:43:46.530Z,1.13
2018-12-02T14:46:14.405Z,1.10
2018-12-02T14:48:42.317Z,1.07
2018-12-02T14:51:10.229Z,1.20
2018-12-02T14:53:38.142Z,1.10
2018-12-02T14:56:06.470Z,1.27
2018-12-02T14:58:34.430Z,1.03
2018-12-02T15:01:02.329Z,1.20
2018-12-02T15:03:30.209Z,1.40
2018-12-02T15:05:58.118Z,1.20
2018-12-02T15:08:26.005Z,1.33
2018-12-02T15:10:53.898Z,1.17
2018-12-02T15:13:21.802Z,0.90
2018-12-02T15:15:49.701Z,1.43
2018-12-02T15:18:17.564Z,1.23
2018-12-02T15:20:45.448Z,1.27
2018-12-02T15:23:13.413Z,1.20
2018-12-02T15:25:41.334Z,1.50
2018-12-02T15:28:09.208Z,1.50
2018-12-02T15:30:37.085Z,1.50
2018-12-02T15:33:05.832Z,8.03
2018-12-02T15:35:33.732Z,6.40
2018-12-02T15:38:01.682Z,6.93
2018-12-02T15:40:29.585Z,18.73
2018-12-02T15:42:57.487Z,39.47
2018-12-02T15:45:25.366Z,24.63
2018-12-02T15:47:53.281Z,31.80
2018-12-02T15:50:22.391Z,85.47
2018-12-02T15:52:50.662Z,33.50
2018-12-02T15:55:35.517Z,11.60
2018-12-02T15:58:10.154Z,16.90
2018-12-02T16:00:39.744Z,4.37
2018-12-02T16:03:07.665Z,3.20
2018-12-02T16:05:35.555Z,13.60
2018-12-02T16:08:03.444Z,5.10
2018-12-02T16:10:31.351Z,2.80
2018-12-02T16:12:59.239Z,2.40
2018-12-02T16:15:29.923Z,1.90
2018-12-02T16:17:57.878Z,2.03
2018-12-02T16:20:31.802Z,2.10
2018-12-02T16:22:59.730Z,2.20
2018-12-02T16:25:27.617Z,1.87
2018-12-02T16:27:55.518Z,2.10
2018-12-02T16:30:23.407Z,2.50
2018-12-02T16:32:52.560Z,2.30
2018-12-02T16:35:20.831Z,2.50
2018-12-02T16:37:49.914Z,2.60
2018-12-02T16:40:20.052Z,2.63
2018-12-02T16:42:47.961Z,2.50
2018-12-02T16:45:16.899Z,3.10
2018-12-02T16:47:46.006Z,2.87
2018-12-02T16:50:21.173Z,3.90
2018-12-02T16:52:49.458Z,4.83
2018-12-02T16:55:19.007Z,3.40
2018-12-02T16:57:52.534Z,3.33
2018-12-02T17:00:23.491Z,3.27
2018-12-02T17:02:51.394Z,4.00
2018-12-02T17:05:19.269Z,4.07
2018-12-02T17:07:47.154Z,12.67
2018-12-02T17:10:15.069Z,16.43
2018-12-02T17:12:42.978Z,7.40
2018-12-02T17:15:13.204Z,16.17
2018-12-02T17:17:41.489Z,16.37
2018-12-02T17:20:17.138Z,12.97
2018-12-02T17:22:45.837Z,9.97
2018-12-02T17:25:14.486Z,9.53
2018-12-02T17:27:43.920Z,9.77
2018-12-02T17:30:18.530Z,6.73
2018-12-02T17:32:46.430Z,6.93
2018-12-02T17:35:14.325Z,7.43
2018-12-02T17:37:42.234Z,7.00
2018-12-02T17:40:12.471Z,4.83
2018-12-02T17:42:40.403Z,19.30
2018-12-02T17:45:09.489Z,4.90
2018-12-02T17:47:37.402Z,4.27
2018-12-02T17:50:09.121Z,3.40
2018-12-02T17:52:37.094Z,3.93
2018-12-02T17:55:06.186Z,4.57
2018-12-02T17:57:34.186Z,4.70
2018-12-02T18:00:02.115Z,3.30
2018-12-02T18:02:30.002Z,4.10
2018-12-02T18:04:58.176Z,3.80
2018-12-02T18:07:26.082Z,3.90
2018-12-02T18:09:53.980Z,3.50
2018-12-02T18:12:21.903Z,4.40
2018-12-02T18:14:49.789Z,4.33
2018-12-02T18:17:17.822Z,4.20
2018-12-02T18:19:45.732Z,4.47
2018-12-02T18:22:13.609Z,4.30
2018-12-02T18:24:41.486Z,4.43
2018-12-02T18:27:09.396Z,4.70
2018-12-02T18:29:37.283Z,3.87
2018-12-02T18:32:05.459Z,3.40
2018-12-02T18:34:34.383Z,5.53
2018-12-02T18:37:02.497Z,6.17
2018-12-02T18:39:30.386Z,4.13
2018-12-02T18:41:58.314Z,3.80
2018-12-02T18:44:26.262Z,3.30
2018-12-02T18:46:54.174Z,2.40
2018-12-02T18:49:22.049Z,2.30
2018-12-02T18:51:49.968Z,2.10
2018-12-02T18:54:17.874Z,2.33
2018-12-02T18:56:45.750Z,2.40
2018-12-02T18:59:13.663Z,2.20
2018-12-02T19:01:41.533Z,1.60
2018-12-02T19:04:09.426Z,1.50
2018-12-02T19:06:37.306Z,0.90
2018-12-02T19:09:08.618Z,1.00
2018-12-02T19:11:36.497Z,1.17
2018-12-02T19:14:04.423Z,1.13
2018-12-02T19:16:32.325Z,1.00
2018-12-02T19:19:00.237Z,1.20
2018-12-02T19:21:29.456Z,1.40
2018-12-02T19:23:58.388Z,1.03
2018-12-02T19:26:26.444Z,0.97
2018-12-02T19:28:54.345Z,0.90
2018-12-02T19:31:22.238Z,0.90
2018-12-02T19:33:51.481Z,0.70
2018-12-02T19:36:30.316Z,0.70
2018-12-02T19:38:58.237Z,0.90
2018-12-02T19:41:26.125Z,0.90
2018-12-02T19:43:54.014Z,0.93
2018-12-02T19:46:21.929Z,0.80
2018-12-02T19:48:49.842Z,1.20
2018-12-02T19:51:17.746Z,0.80
2018-12-02T19:53:45.669Z,0.90
2018-12-02T19:56:13.598Z,0.80
2018-12-02T19:58:41.479Z,0.90
2018-12-02T20:01:09.410Z,1.07
2018-12-02T20:03:37.293Z,1.37
2018-12-02T20:06:05.403Z,1.30
2018-12-02T20:08:33.302Z,1.30
2018-12-02T20:11:01.176Z,1.30
2018-12-02T20:13:29.090Z,1.30
2018-12-02T20:16:02.554Z,1.40
2018-12-02T20:18:30.430Z,2.37
2018-12-02T20:20:59.970Z,2.33
2018-12-02T20:23:33.102Z,2.53
2018-12-02T20:26:01.951Z,3.50
2018-12-02T20:28:34.410Z,4.60
2018-12-02T20:31:09.758Z,3.50
2018-12-02T20:33:37.625Z,3.33
2018-12-02T20:36:06.268Z,3.00
2018-12-02T20:38:34.136Z,2.80
2018-12-02T20:41:02.096Z,3.03
2018-12-02T20:43:30.034Z,3.07
2018-12-02T20:45:57.906Z,2.47
2018-12-02T20:48:25.808Z,3.03
2018-12-02T20:50:53.685Z,3.00
2018-12-02T20:53:21.594Z,3.40
2018-12-02T20:55:49.462Z,3.50
2018-12-02T20:58:17.361Z,3.20
2018-12-02T21:00:45.235Z,3.00
2018-12-02T21:03:25.025Z,2.63
2018-12-02T21:06:24.817Z,2.40
2018-12-02T21:08:52.710Z,2.50
2018-12-02T21:11:20.590Z,2.10
2018-12-02T21:13:48.497Z,2.50
2018-12-02T21:16:16.453Z,2.10
2018-12-02T21:18:44.345Z,2.60
2018-12-02T21:21:12.213Z,2.73
2018-12-02T21:23:40.201Z,2.67
2018-12-02T21:26:09.400Z,2.40
2018-12-02T21:28:38.065Z,2.43
2018-12-02T21:31:05.961Z,2.53
2018-12-02T21:33:33.850Z,2.23
2018-12-02T21:36:01.761Z,2.37
2018-12-02T21:38:29.655Z,2.47
2018-12-02T21:40:57.553Z,2.10
2018-12-02T21:43:25.437Z,2.40
2018-12-02T21:45:53.337Z,2.57
2018-12-02T21:48:21.885Z,2.57
2018-12-02T21:50:53.353Z,2.73
2018-12-02T21:53:21.274Z,2.27
2018-12-02T21:55:49.181Z,2.70
2018-12-02T21:58:17.078Z,2.83
2018-12-02T22:00:45.725Z,3.10
2018-12-02T22:03:14.697Z,4.03
2018-12-02T22:05:42.921Z,4.17
2018-12-02T22:08:10.825Z,4.07
2018-12-02T22:10:38.702Z,4.20
2018-12-02T22:13:06.663Z,4.07
2018-12-02T22:15:34.598Z,6.10
2018-12-02T22:18:02.481Z,7.37
2018-12-02T22:20:30.390Z,6.17
2018-12-02T22:22:58.286Z,5.00
2018-12-02T22:25:26.202Z,5.50
2018-12-02T22:27:55.494Z,6.23
2018-12-02T22:30:24.258Z,6.53
2018-12-02T22:32:52.310Z,6.53
2018-12-02T22:35:20.222Z,6.07
2018-12-02T22:37:48.186Z,5.60
2018-12-02T22:40:20.010Z,5.73
2018-12-02T22:42:47.971Z,6.30
2018-12-02T22:45:25.373Z,6.17
2018-12-02T22:47:53.358Z,7.03
2018-12-02T22:50:22.218Z,6.87
2018-12-02T22:52:51.217Z,7.00
2018-12-02T22:55:19.105Z,7.53
2018-12-02T22:57:47.010Z,7.23
2018-12-02T23:00:37.347Z,7.30
2018-12-02T23:03:11.413Z,7.63
2018-12-02T23:05:40.030Z,7.70
2018-12-02T23:08:08.064Z,7.43
2018-12-02T23:10:36.049Z,6.70
2018-12-02T23:13:03.957Z,7.37
2018-12-02T23:15:31.886Z,7.53
2018-12-02T23:17:59.761Z,6.60
2018-12-02T23:20:27.687Z,5.70
2018-12-02T23:22:55.581Z,7.43
2018-12-02T23:25:23.504Z,7.73
2018-12-02T23:27:51.402Z,7.63
2018-12-02T23:30:23.062Z,8.60
2018-12-02T23:32:50.946Z,7.63
2018-12-02T23:35:18.850Z,6.83
2018-12-02T23:37:46.790Z,7.27
2018-12-02T23:40:16.933Z,8.00
2018-12-02T23:42:44.885Z,6.00
2018-12-02T23:45:13.559Z,6.40
2018-12-02T23:47:41.491Z,6.40
2018-12-02T23:50:10.723Z,7.10
2018-12-02T23:52:38.622Z,7.27
2018-12-02T23:55:10.029Z,7.47
2018-12-02T23:57:37.938Z,7.10
